createdAt,value
2018-07-06T00:02:22.952Z,6.27
2018-07-06T00:05:02.490Z,6.00
2018-07-06T00:07:41.913Z,5.80
2018-07-06T00:10:21.322Z,5.87
2018-07-06T00:13:00.726Z,5.73
2018-07-06T00:15:40.197Z,6.33
2018-07-06T00:18:19.710Z,6.03
2018-07-06T00:20:59.117Z,6.00
2018-07-06T00:23:38.565Z,5.60
2018-07-06T00:26:18.001Z,6.23
2018-07-06T00:28:57.437Z,6.07
2018-07-06T00:31:36.933Z,5.33
2018-07-06T00:34:16.316Z,6.20
2018-07-06T00:36:55.752Z,6.67
2018-07-06T00:39:35.197Z,8.53
2018-07-06T00:42:14.655Z,7.00
2018-07-06T00:44:54.252Z,8.10
2018-07-06T00:47:33.757Z,7.93
2018-07-06T00:50:13.171Z,6.50
2018-07-06T00:52:52.582Z,7.50
2018-07-06T00:55:32.107Z,6.00
2018-07-06T00:58:11.563Z,7.47
2018-07-06T01:00:50.988Z,10.93
2018-07-06T01:03:30.540Z,7.20
2018-07-06T01:06:10.074Z,7.13
2018-07-06T01:08:49.697Z,6.70
2018-07-06T01:11:29.182Z,6.73
2018-07-06T01:14:08.706Z,7.70
2018-07-06T01:16:48.241Z,7.43
2018-07-06T01:19:27.677Z,8.27
2018-07-06T01:22:07.177Z,9.10
2018-07-06T01:24:46.603Z,8.73
2018-07-06T01:27:26.040Z,6.90
2018-07-06T01:30:05.593Z,9.17
2018-07-06T01:32:45.093Z,8.20
2018-07-06T01:35:24.630Z,9.70
2018-07-06T01:38:04.157Z,10.33
2018-07-06T01:40:43.695Z,9.57
2018-07-06T01:43:23.191Z,9.47
2018-07-06T01:46:02.817Z,9.70
2018-07-06T01:48:42.223Z,8.77
2018-07-06T01:51:21.889Z,9.50
2018-07-06T01:54:01.305Z,9.37
2018-07-06T01:56:40.681Z,9.37
2018-07-06T01:59:20.283Z,10.80
2018-07-06T02:01:59.774Z,10.90
2018-07-06T02:04:39.261Z,11.07
2018-07-06T02:07:18.562Z,11.37
2018-07-06T02:09:58.051Z,11.33
2018-07-06T02:12:37.553Z,12.20
2018-07-06T02:15:17.000Z,12.40
2018-07-06T02:17:57.014Z,12.10
2018-07-06T02:20:36.384Z,12.13
2018-07-06T02:23:15.926Z,12.07
2018-07-06T02:25:55.373Z,12.67
2018-07-06T02:28:34.806Z,13.57
2018-07-06T02:31:14.234Z,13.90
2018-07-06T02:33:53.571Z,13.17
2018-07-06T02:36:33.686Z,13.73
2018-07-06T02:39:13.061Z,14.40
2018-07-06T02:41:52.716Z,13.80
2018-07-06T02:44:32.337Z,14.17
2018-07-06T02:47:11.950Z,13.90
2018-07-06T02:49:51.488Z,14.40
2018-07-06T02:52:31.073Z,15.67
2018-07-06T02:55:10.417Z,13.50
2018-07-06T02:57:49.917Z,14.17
2018-07-06T03:00:29.489Z,15.00
2018-07-06T03:03:09.019Z,13.27
2018-07-06T03:05:48.532Z,15.47
2018-07-06T03:08:28.196Z,15.33
2018-07-06T03:11:07.658Z,16.57
2018-07-06T03:13:47.214Z,15.70
2018-07-06T03:16:26.638Z,17.00
2018-07-06T03:19:06.338Z,16.07
2018-07-06T03:21:45.814Z,17.00
2018-07-06T03:24:25.331Z,18.33
2018-07-06T03:27:04.782Z,18.27
2018-07-06T03:29:44.341Z,18.80
2018-07-06T03:32:23.901Z,16.93
2018-07-06T03:35:03.333Z,18.90
2018-07-06T03:37:42.769Z,19.13
2018-07-06T03:40:22.281Z,19.20
2018-07-06T03:43:01.683Z,20.20
2018-07-06T03:45:41.210Z,20.03
2018-07-06T03:48:20.801Z,18.80
2018-07-06T03:51:00.217Z,18.50
2018-07-06T03:53:40.023Z,18.87
2018-07-06T03:56:19.649Z,19.60
2018-07-06T03:58:59.227Z,19.07
2018-07-06T04:01:38.635Z,20.60
2018-07-06T04:04:18.122Z,18.97
2018-07-06T04:06:57.594Z,19.90
2018-07-06T04:09:37.114Z,20.73
2018-07-06T04:12:16.774Z,19.47
2018-07-06T04:14:56.206Z,20.30
2018-07-06T04:17:35.760Z,19.30
2018-07-06T04:20:15.254Z,21.57
2018-07-06T04:22:54.954Z,17.83
2018-07-06T04:25:34.555Z,20.10
2018-07-06T04:28:14.086Z,19.90
2018-07-06T04:30:53.362Z,18.80
2018-07-06T04:33:32.890Z,18.83
2018-07-06T04:36:12.673Z,20.53
2018-07-06T04:38:52.301Z,20.30
2018-07-06T04:41:31.801Z,20.43
2018-07-06T04:44:11.491Z,21.47
2018-07-06T04:46:50.946Z,21.03
2018-07-06T04:49:30.516Z,21.07
2018-07-06T04:52:10.030Z,19.00
2018-07-06T04:54:49.489Z,19.20
2018-07-06T04:57:29.081Z,19.73
2018-07-06T05:00:08.617Z,18.30
2018-07-06T05:02:47.956Z,19.60
2018-07-06T05:05:27.401Z,20.17
2018-07-06T05:08:06.924Z,19.77
2018-07-06T05:10:46.515Z,20.10
2018-07-06T05:13:26.087Z,19.93
2018-07-06T05:16:05.423Z,20.50
2018-07-06T05:18:44.894Z,19.80
2018-07-06T05:21:24.492Z,20.30
2018-07-06T05:24:04.017Z,19.90
2018-07-06T05:26:43.542Z,19.50
2018-07-06T05:29:23.051Z,17.93
2018-07-06T05:32:02.807Z,18.40
2018-07-06T05:34:42.365Z,17.67
2018-07-06T05:37:21.882Z,19.00
2018-07-06T05:40:01.452Z,18.60
2018-07-06T05:42:41.042Z,17.50
2018-07-06T05:45:20.434Z,18.17
2018-07-06T05:48:00.113Z,20.90
2018-07-06T05:50:39.441Z,18.50
2018-07-06T05:53:18.918Z,17.53
2018-07-06T05:55:58.341Z,18.23
2018-07-06T05:58:37.905Z,17.73
2018-07-06T06:01:17.378Z,17.60
2018-07-06T06:03:56.761Z,16.87
2018-07-06T06:06:36.169Z,17.60
2018-07-06T06:09:03.693Z,16.77
2018-07-06T06:11:31.881Z,17.97
2018-07-06T06:14:00.050Z,17.97
2018-07-06T06:16:28.301Z,16.93
2018-07-06T06:18:56.501Z,17.03
2018-07-06T06:21:24.761Z,18.43
2018-07-06T06:23:52.942Z,16.87
2018-07-06T06:26:30.936Z,17.37
2018-07-06T06:28:59.490Z,16.17
2018-07-06T06:31:28.503Z,15.60
2018-07-06T06:33:58.200Z,17.53
2018-07-06T06:36:26.391Z,15.40
2018-07-06T06:38:54.558Z,15.70
2018-07-06T06:41:22.731Z,17.07
2018-07-06T06:43:50.942Z,16.57
2018-07-06T06:46:19.157Z,16.97
2018-07-06T06:48:47.436Z,16.73
2018-07-06T06:51:15.694Z,17.53
2018-07-06T06:53:43.866Z,16.77
2018-07-06T06:56:12.042Z,17.30
2018-07-06T06:58:40.570Z,18.47
2018-07-06T07:01:08.852Z,14.37
2018-07-06T07:03:37.214Z,14.07
2018-07-06T07:06:05.458Z,14.07
2018-07-06T07:08:33.650Z,14.90
2018-07-06T07:11:01.834Z,15.43
2018-07-06T07:13:30.037Z,14.57
2018-07-06T07:15:58.225Z,13.93
2018-07-06T07:18:26.405Z,15.00
2018-07-06T07:20:54.589Z,14.07
2018-07-06T07:23:22.765Z,14.10
2018-07-06T07:25:51.049Z,14.70
2018-07-06T07:28:19.249Z,14.73
2018-07-06T07:30:47.427Z,16.63
2018-07-06T07:33:15.663Z,15.10
2018-07-06T07:35:43.952Z,16.77
2018-07-06T07:38:12.125Z,16.43
2018-07-06T07:40:40.331Z,16.03
2018-07-06T07:43:08.514Z,17.60
2018-07-06T07:45:36.683Z,17.13
2018-07-06T07:48:04.997Z,16.63
2018-07-06T07:50:33.191Z,15.77
2018-07-06T07:53:12.747Z,14.87
2018-07-06T07:55:41.019Z,15.03
2018-07-06T07:58:09.190Z,14.00
2018-07-06T08:00:37.563Z,14.47
2018-07-06T08:03:05.825Z,14.67
2018-07-06T08:05:34.000Z,13.03
2018-07-06T08:08:02.168Z,13.43
2018-07-06T08:10:30.686Z,11.33
2018-07-06T08:12:58.928Z,11.20
2018-07-06T08:15:27.190Z,10.37
2018-07-06T08:17:55.372Z,9.97
2018-07-06T08:20:23.570Z,10.50
2018-07-06T08:22:51.801Z,10.43
2018-07-06T08:25:19.972Z,9.27
2018-07-06T08:27:48.133Z,9.30
2018-07-06T08:30:16.320Z,8.83
2018-07-06T08:32:44.493Z,8.47
2018-07-06T08:35:23.977Z,9.50
2018-07-06T08:38:01.202Z,9.40
2018-07-06T08:40:29.520Z,8.90
2018-07-06T08:42:58.928Z,9.53
2018-07-06T08:45:27.573Z,10.37
2018-07-06T08:47:55.791Z,10.60
2018-07-06T08:50:24.148Z,11.63
2018-07-06T08:52:53.907Z,9.20
2018-07-06T08:55:22.400Z,9.37
2018-07-06T08:57:51.810Z,10.43
2018-07-06T09:00:19.982Z,10.70
2018-07-06T09:02:48.193Z,10.43
2018-07-06T09:05:22.930Z,10.80
2018-07-06T09:07:51.106Z,10.23
2018-07-06T09:10:19.378Z,10.10
2018-07-06T09:12:47.584Z,13.17
2018-07-06T09:15:15.758Z,10.53
2018-07-06T09:17:44.006Z,11.20
2018-07-06T09:20:12.534Z,8.50
2018-07-06T09:22:40.561Z,6.63
2018-07-06T09:25:08.988Z,7.00
2018-07-06T09:27:37.553Z,7.53
2018-07-06T09:30:05.853Z,7.90
2018-07-06T09:32:34.005Z,6.70
2018-07-06T09:35:02.205Z,7.03
2018-07-06T09:37:30.429Z,7.53
2018-07-06T09:39:58.917Z,9.10
2018-07-06T09:42:27.093Z,9.70
2018-07-06T09:44:55.357Z,10.60
2018-07-06T09:47:23.543Z,11.40
2018-07-06T09:49:52.021Z,10.03
2018-07-06T09:52:20.505Z,11.45
2018-07-06T09:54:48.672Z,13.20
2018-07-06T09:57:16.859Z,11.60
2018-07-06T09:59:45.133Z,11.87
2018-07-06T10:02:13.308Z,14.20
2018-07-06T10:04:41.490Z,13.13
2018-07-06T10:07:09.666Z,12.30
2018-07-06T10:09:38.013Z,10.63
2018-07-06T10:12:06.414Z,10.60
2018-07-06T10:14:34.590Z,12.43
2018-07-06T10:17:02.766Z,11.37
2018-07-06T10:19:31.030Z,11.60
2018-07-06T10:21:59.129Z,11.90
2018-07-06T10:24:27.282Z,12.90
2018-07-06T10:26:55.459Z,12.33
2018-07-06T10:29:31.972Z,14.20
2018-07-06T10:32:16.873Z,14.77
2018-07-06T10:34:45.049Z,16.13
2018-07-06T10:37:13.217Z,15.27
2018-07-06T10:39:41.801Z,14.97
2018-07-06T10:42:10.251Z,14.73
2018-07-06T10:44:38.512Z,14.90
2018-07-06T10:47:06.685Z,14.77
2018-07-06T10:49:35.063Z,12.53
2018-07-06T10:52:03.483Z,14.03
2018-07-06T10:54:31.665Z,12.47
2018-07-06T10:56:59.885Z,13.30
2018-07-06T10:59:28.777Z,13.90
2018-07-06T11:01:57.034Z,13.83
2018-07-06T11:04:25.236Z,13.40
2018-07-06T11:06:53.771Z,15.57
2018-07-06T11:09:21.988Z,13.37
2018-07-06T11:11:50.175Z,12.80
2018-07-06T11:14:18.623Z,13.20
2018-07-06T11:16:46.933Z,12.77
2018-07-06T11:19:15.178Z,11.73
2018-07-06T11:21:43.402Z,12.63
2018-07-06T11:24:11.722Z,12.10
2018-07-06T11:26:39.920Z,12.43
2018-07-06T11:29:08.206Z,11.87
2018-07-06T11:31:36.797Z,11.67
2018-07-06T11:34:05.676Z,11.63
2018-07-06T11:36:36.613Z,12.43
2018-07-06T11:39:05.912Z,12.43
2018-07-06T11:41:34.417Z,11.70
2018-07-06T11:44:02.765Z,10.90
2018-07-06T11:46:31.089Z,11.77
2018-07-06T11:48:59.274Z,10.70
2018-07-06T11:51:27.461Z,10.57
2018-07-06T11:53:55.721Z,10.83
2018-07-06T11:56:23.920Z,10.03
2018-07-06T11:58:52.411Z,9.50
2018-07-06T12:01:20.659Z,9.77
2018-07-06T12:03:48.925Z,9.57
2018-07-06T12:06:17.117Z,10.30
2018-07-06T12:08:45.308Z,11.43
2018-07-06T12:11:13.475Z,9.90
2018-07-06T12:13:41.740Z,10.50
2018-07-06T12:16:09.899Z,9.20
2018-07-06T12:18:38.082Z,9.03
2018-07-06T12:21:06.377Z,9.30
2018-07-06T12:23:34.509Z,10.10
2018-07-06T12:26:02.664Z,9.70
2018-07-06T12:28:30.894Z,10.00
2018-07-06T12:30:59.377Z,17.13
2018-07-06T12:33:27.791Z,9.67
2018-07-06T12:35:55.990Z,10.30
2018-07-06T12:38:24.157Z,9.33
2018-07-06T12:40:52.585Z,8.57
2018-07-06T12:43:20.778Z,8.73
2018-07-06T12:45:49.059Z,8.57
2018-07-06T12:48:17.240Z,7.37
2018-07-06T12:50:45.425Z,6.57
2018-07-06T12:53:13.591Z,5.70
2018-07-06T12:55:41.779Z,6.13
2018-07-06T12:58:09.993Z,7.17
2018-07-06T13:00:38.481Z,6.90
2018-07-06T13:03:06.661Z,7.13
2018-07-06T13:05:34.843Z,6.60
2018-07-06T13:08:03.019Z,6.90
2018-07-06T13:10:31.232Z,7.70
2018-07-06T13:12:59.387Z,8.33
2018-07-06T13:15:27.761Z,7.00
2018-07-06T13:17:55.922Z,5.90
2018-07-06T13:20:24.104Z,6.83
2018-07-06T13:22:52.492Z,6.73
2018-07-06T13:25:20.771Z,6.47
2018-07-06T13:27:55.246Z,7.33
2018-07-06T13:30:23.508Z,7.33
2018-07-06T13:32:51.742Z,7.53
2018-07-06T13:35:19.930Z,7.00
2018-07-06T13:37:48.194Z,8.40
2018-07-06T13:40:16.356Z,5.33
2018-07-06T13:42:44.546Z,6.10
2018-07-06T13:45:12.766Z,7.50
2018-07-06T13:47:40.933Z,7.90
2018-07-06T13:50:09.134Z,10.43
2018-07-06T13:52:37.313Z,11.40
2018-07-06T13:55:05.538Z,12.73
2018-07-06T13:57:34.055Z,12.53
2018-07-06T14:00:02.335Z,22.37
2018-07-06T14:02:30.512Z,15.47
2018-07-06T14:04:58.724Z,14.63
2018-07-06T14:07:26.905Z,23.73
2018-07-06T14:09:55.091Z,16.57
2018-07-06T14:12:23.287Z,14.30
2018-07-06T14:14:51.867Z,12.97
2018-07-06T14:17:20.043Z,12.83
2018-07-06T14:19:48.377Z,13.80
2018-07-06T14:22:16.564Z,15.30
2018-07-06T14:24:44.718Z,15.03
2018-07-06T14:27:12.978Z,25.53
2018-07-06T14:29:41.178Z,24.30
2018-07-06T14:32:09.402Z,23.97
2018-07-06T14:34:37.634Z,17.50
2018-07-06T14:37:05.858Z,34.63
2018-07-06T14:39:34.100Z,24.23
2018-07-06T14:42:02.606Z,29.43
2018-07-06T14:44:31.289Z,29.97
2018-07-06T14:46:59.505Z,36.60
2018-07-06T14:49:27.693Z,15.90
2018-07-06T14:51:55.885Z,24.60
2018-07-06T14:54:24.694Z,20.23
2018-07-06T14:56:53.262Z,16.20
2018-07-06T14:59:21.465Z,14.60
2018-07-06T15:01:49.648Z,12.70
2018-07-06T15:04:17.857Z,12.03
2018-07-06T15:06:46.184Z,12.90
2018-07-06T15:09:14.356Z,13.20
2018-07-06T15:11:42.517Z,12.53
2018-07-06T15:14:10.741Z,12.33
2018-07-06T15:16:38.937Z,11.37
2018-07-06T15:19:07.167Z,11.40
2018-07-06T15:21:35.434Z,11.50
2018-07-06T15:24:03.651Z,11.13
2018-07-06T15:26:31.850Z,10.90
2018-07-06T15:29:00.077Z,11.83
2018-07-06T15:31:28.296Z,12.07
2018-07-06T15:33:56.502Z,12.07
2018-07-06T15:36:25.803Z,12.83
2018-07-06T15:38:53.998Z,13.07
2018-07-06T15:41:22.198Z,13.97
2018-07-06T15:43:50.431Z,12.50
2018-07-06T15:46:18.608Z,14.40
2018-07-06T15:48:46.910Z,13.70
2018-07-06T15:51:15.157Z,14.30
2018-07-06T15:53:43.342Z,14.27
2018-07-06T15:56:11.555Z,14.57
2018-07-06T15:58:39.734Z,12.10
2018-07-06T16:01:09.353Z,15.90
2018-07-06T16:03:37.589Z,14.53
2018-07-06T16:06:05.951Z,13.57
2018-07-06T16:08:34.140Z,15.13
2018-07-06T16:11:02.362Z,14.23
2018-07-06T16:13:30.840Z,14.50
2018-07-06T16:15:59.017Z,15.13
2018-07-06T16:18:27.196Z,13.60
2018-07-06T16:20:55.443Z,16.13
2018-07-06T16:23:23.581Z,15.03
2018-07-06T16:25:51.759Z,16.17
2018-07-06T16:28:19.936Z,14.70
2018-07-06T16:30:48.122Z,22.07
2018-07-06T16:33:16.409Z,13.40
2018-07-06T16:35:44.622Z,13.00
2018-07-06T16:38:12.924Z,13.50
2018-07-06T16:40:41.118Z,15.73
2018-07-06T16:43:09.310Z,14.60
2018-07-06T16:45:37.869Z,14.10
2018-07-06T16:48:06.062Z,13.87
2018-07-06T16:50:34.234Z,13.63
2018-07-06T16:53:02.413Z,13.50
2018-07-06T16:55:30.873Z,12.90
2018-07-06T16:57:59.058Z,12.80
2018-07-06T17:00:27.284Z,12.80
2018-07-06T17:02:55.705Z,13.62
2018-07-06T17:05:23.886Z,13.03
2018-07-06T17:07:52.065Z,14.60
2018-07-06T17:10:20.481Z,16.40
2018-07-06T17:12:48.670Z,16.93
2018-07-06T17:15:16.861Z,16.83
2018-07-06T17:17:45.155Z,15.77
2018-07-06T17:20:13.321Z,16.17
2018-07-06T17:22:41.505Z,17.27
2018-07-06T17:25:09.732Z,16.77
2018-07-06T17:27:37.903Z,16.67
2018-07-06T17:30:06.101Z,17.47
2018-07-06T17:32:34.309Z,16.53
2018-07-06T17:35:02.473Z,17.30
2018-07-06T17:37:30.697Z,19.43
2018-07-06T17:39:58.928Z,19.77
2018-07-06T17:42:27.136Z,19.17
2018-07-06T17:44:55.326Z,20.23
2018-07-06T17:47:23.850Z,18.67
2018-07-06T17:49:52.339Z,19.30
2018-07-06T17:52:20.518Z,18.80
2018-07-06T17:54:48.742Z,18.37
2018-07-06T17:57:16.924Z,19.63
2018-07-06T17:59:45.106Z,16.83
2018-07-06T18:02:13.314Z,17.70
2018-07-06T18:04:41.489Z,20.47
2018-07-06T18:07:10.018Z,18.77
2018-07-06T18:09:38.190Z,18.33
2018-07-06T18:12:06.414Z,19.13
2018-07-06T18:14:34.757Z,19.43
2018-07-06T18:17:03.611Z,19.00
2018-07-06T18:19:31.798Z,19.10
2018-07-06T18:22:00.865Z,19.90
2018-07-06T18:24:29.091Z,18.37
2018-07-06T18:26:57.256Z,20.10
2018-07-06T18:29:25.469Z,35.00
2018-07-06T18:31:53.735Z,25.03
2018-07-06T18:34:21.973Z,21.03
2018-07-06T18:36:50.148Z,55.33
2018-07-06T18:39:18.406Z,19.07
2018-07-06T18:41:46.906Z,23.40
2018-07-06T18:44:15.067Z,19.27
2018-07-06T18:46:43.282Z,19.93
2018-07-06T18:49:11.454Z,19.03
2018-07-06T18:51:39.648Z,20.43
2018-07-06T18:54:07.853Z,21.67
2018-07-06T18:56:36.237Z,21.40
2018-07-06T18:59:04.469Z,20.27
2018-07-06T19:01:32.670Z,27.30
2018-07-06T19:04:00.854Z,23.87
2018-07-06T19:06:29.142Z,21.27
2018-07-06T19:08:57.450Z,19.10
2018-07-06T19:11:25.641Z,19.70
2018-07-06T19:13:53.813Z,20.20
2018-07-06T19:16:22.016Z,19.70
2018-07-06T19:18:50.191Z,20.10
2018-07-06T19:21:18.395Z,20.40
2018-07-06T19:23:46.583Z,20.80
2018-07-06T19:26:14.765Z,23.50
2018-07-06T19:28:42.945Z,22.50
2018-07-06T19:31:11.348Z,27.27
2018-07-06T19:33:39.723Z,35.13
2018-07-06T19:36:07.903Z,22.13
2018-07-06T19:38:36.474Z,23.10
2018-07-06T19:41:04.668Z,24.50
2018-07-06T19:43:32.875Z,23.37
2018-07-06T19:46:01.119Z,22.97
2018-07-06T19:48:29.316Z,23.23
2018-07-06T19:50:57.830Z,25.23
2018-07-06T19:53:26.885Z,23.83
2018-07-06T19:55:55.093Z,22.30
2018-07-06T19:58:23.347Z,23.87
2018-07-06T20:00:51.463Z,56.10
2018-07-06T20:03:19.782Z,42.13
2018-07-06T20:05:48.011Z,29.00
2018-07-06T20:08:16.248Z,29.93
2018-07-06T20:10:44.429Z,26.17
2018-07-06T20:13:12.649Z,28.63
2018-07-06T20:15:40.810Z,27.40
2018-07-06T20:18:09.004Z,26.77
2018-07-06T20:20:37.187Z,25.97
2018-07-06T20:23:05.390Z,27.00
2018-07-06T20:25:33.561Z,24.87
2018-07-06T20:28:01.773Z,28.33
2018-07-06T20:30:30.061Z,26.43
2018-07-06T20:32:58.249Z,26.63
2018-07-06T20:35:26.453Z,27.83
2018-07-06T20:37:54.633Z,26.70
2018-07-06T20:40:22.970Z,26.00
2018-07-06T20:42:51.267Z,26.97
2018-07-06T20:45:19.451Z,27.43
2018-07-06T20:47:47.785Z,69.27
2018-07-06T20:50:16.071Z,29.77
2018-07-06T20:52:44.265Z,29.70
2018-07-06T20:55:12.443Z,30.27
2018-07-06T20:57:40.638Z,27.77
2018-07-06T21:00:08.869Z,43.13
2018-07-06T21:02:37.068Z,31.67
2018-07-06T21:05:05.319Z,28.43
2018-07-06T21:07:33.530Z,28.00
2018-07-06T21:10:01.709Z,29.13
2018-07-06T21:12:29.883Z,28.17
2018-07-06T21:14:58.070Z,27.23
2018-07-06T21:17:26.490Z,27.27
2018-07-06T21:19:54.668Z,27.00
2018-07-06T21:22:22.880Z,26.77
2018-07-06T21:24:51.026Z,28.07
2018-07-06T21:27:19.210Z,27.23
2018-07-06T21:29:47.421Z,27.67
2018-07-06T21:32:15.599Z,27.97
2018-07-06T21:34:43.899Z,25.80
2018-07-06T21:37:12.105Z,29.43
2018-07-06T21:39:40.281Z,27.57
2018-07-06T21:42:08.505Z,28.30
2018-07-06T21:44:36.705Z,29.90
2018-07-06T21:47:04.961Z,31.07
2018-07-06T21:49:33.141Z,30.90
2018-07-06T21:52:01.430Z,31.30
2018-07-06T21:54:29.671Z,30.90
2018-07-06T21:56:57.865Z,30.60
2018-07-06T21:59:26.152Z,38.73
2018-07-06T22:01:54.417Z,31.60
2018-07-06T22:04:22.584Z,32.17
2018-07-06T22:06:50.797Z,28.70
2018-07-06T22:09:18.962Z,30.53
2018-07-06T22:11:47.138Z,37.23
2018-07-06T22:14:15.398Z,36.95
2018-07-06T22:16:43.622Z,35.90
2018-07-06T22:19:11.798Z,37.03
2018-07-06T22:21:40.293Z,33.50
2018-07-06T22:24:08.469Z,34.13
2018-07-06T22:26:36.642Z,29.57
2018-07-06T22:29:05.158Z,30.87
2018-07-06T22:31:33.337Z,34.80
2018-07-06T22:34:01.506Z,27.70
2018-07-06T22:36:29.797Z,32.77
2018-07-06T22:38:57.993Z,30.83
2018-07-06T22:41:26.166Z,30.93
2018-07-06T22:43:54.372Z,30.07
2018-07-06T22:46:22.570Z,32.23
2018-07-06T22:48:50.850Z,30.50
2018-07-06T22:51:19.040Z,36.83
2018-07-06T22:53:47.295Z,34.63
2018-07-06T22:56:15.614Z,36.47
2018-07-06T22:58:43.804Z,33.13
2018-07-06T23:01:12.015Z,30.17
2018-07-06T23:03:40.173Z,42.93
2018-07-06T23:06:08.349Z,40.10
2018-07-06T23:08:36.632Z,33.50
2018-07-06T23:11:04.877Z,37.33
2018-07-06T23:13:33.075Z,39.33
2018-07-06T23:16:01.258Z,39.63
2018-07-06T23:18:29.702Z,45.20
2018-07-06T23:20:57.894Z,44.40
2018-07-06T23:23:26.087Z,41.87
2018-07-06T23:25:54.366Z,42.77
2018-07-06T23:28:22.658Z,47.00
2018-07-06T23:30:50.833Z,58.30
2018-07-06T23:33:19.675Z,44.50
2018-07-06T23:35:47.858Z,38.17
2018-07-06T23:38:16.099Z,34.70
2018-07-06T23:40:44.217Z,28.70
2018-07-06T23:43:12.493Z,36.10
2018-07-06T23:45:40.653Z,25.60
2018-07-06T23:48:08.925Z,26.40
2018-07-06T23:50:37.135Z,25.63
2018-07-06T23:53:05.341Z,30.00
2018-07-06T23:55:33.515Z,23.57
2018-07-06T23:58:01.720Z,22.67
